sensor_id;sensor_type;location;lat;lon;timestamp;pressure;altitude;pressure_sealevel;temperature;humidity
43553;BME280;29153;42.696;23.218;2023-05-24T00:01:35;94283.53;;;9.75;100.00
43553;BME280;29153;42.696;23.218;2023-05-24T00:04:03;94284.30;;;9.76;100.00
43553;BME280;29153;42.696;23.218;2023-05-24T00:06:30;94288.53;;;9.77;100.00
43553;BME280;29153;42.696;23.218;2023-05-24T00:09:00;94283.24;;;9.77;100.00
43553;BME280;29153;42.696;23.218;2023-05-24T00:11:27;94283.30;;;9.69;100.00
43553;BME280;29153;42.696;23.218;2023-05-24T00:13:55;94280.41;;;9.63;100.00
43553;BME280;29153;42.696;23.218;2023-05-24T00:16:22;94277.55;;;9.57;100.00
43553;BME280;29153;42.696;23.218;2023-05-24T00:18:50;94279.66;;;9.55;100.00
43553;BME280;29153;42.696;23.218;2023-05-24T00:21:17;94278.63;;;9.51;100.00
43553;BME280;29153;42.696;23.218;2023-05-24T00:23:45;94277.81;;;9.55;100.00
43553;BME280;29153;42.696;23.218;2023-05-24T00:26:12;94279.40;;;9.56;100.00
43553;BME280;29153;42.696;23.218;2023-05-24T00:28:40;94269.61;;;9.54;100.00
43553;BME280;29153;42.696;23.218;2023-05-24T00:31:07;94271.97;;;9.58;100.00
43553;BME280;29153;42.696;23.218;2023-05-24T00:33:35;94271.49;;;9.54;100.00
43553;BME280;29153;42.696;23.218;2023-05-24T00:36:02;94272.78;;;9.56;100.00
43553;BME280;29153;42.696;23.218;2023-05-24T00:38:30;94267.78;;;9.52;100.00
43553;BME280;29153;42.696;23.218;2023-05-24T00:40:57;94266.75;;;9.46;100.00
43553;BME280;29153;42.696;23.218;2023-05-24T00:43:26;94265.98;;;9.43;100.00
43553;BME280;29153;42.696;23.218;2023-05-24T00:46:06;94272.61;;;9.40;100.00
43553;BME280;29153;42.696;23.218;2023-05-24T00:48:27;94268.12;;;9.41;100.00
43553;BME280;29153;42.696;23.218;2023-05-24T00:50:55;94260.19;;;9.41;100.00
43553;BME280;29153;42.696;23.218;2023-05-24T00:53:22;94266.28;;;9.36;100.00
43553;BME280;29153;42.696;23.218;2023-05-24T00:55:50;94264.69;;;9.33;100.00
43553;BME280;29153;42.696;23.218;2023-05-24T00:58:17;94270.81;;;9.28;100.00
43553;BME280;29153;42.696;23.218;2023-05-24T01:00:46;94264.98;;;9.29;100.00
43553;BME280;29153;42.696;23.218;2023-05-24T01:03:15;94270.02;;;9.28;100.00
43553;BME280;29153;42.696;23.218;2023-05-24T01:05:42;94277.20;;;9.20;100.00
43553;BME280;29153;42.696;23.218;2023-05-24T01:08:18;94274.84;;;9.16;100.00
43553;BME280;29153;42.696;23.218;2023-05-24T01:10:54;94272.20;;;9.10;100.00
43553;BME280;29153;42.696;23.218;2023-05-24T01:13:32;94273.75;;;9.17;100.00
43553;BME280;29153;42.696;23.218;2023-05-24T01:16:11;94278.25;;;9.19;100.00
43553;BME280;29153;42.696;23.218;2023-05-24T01:18:37;94279.85;;;9.14;100.00
43553;BME280;29153;42.696;23.218;2023-05-24T01:21:27;94278.01;;;9.07;100.00
43553;BME280;29153;42.696;23.218;2023-05-24T01:24:13;94277.55;;;8.93;100.00
43553;BME280;29153;42.696;23.218;2023-05-24T01:29:29;94282.03;;;8.92;100.00
43553;BME280;29153;42.696;23.218;2023-05-24T01:31:57;94280.46;;;8.89;100.00
43553;BME280;29153;42.696;23.218;2023-05-24T01:34:25;94286.24;;;8.96;100.00
43553;BME280;29153;42.696;23.218;2023-05-24T01:36:53;94275.92;;;8.99;100.00
43553;BME280;29153;42.696;23.218;2023-05-24T01:39:23;94275.14;;;9.01;100.00
43553;BME280;29153;42.696;23.218;2023-05-24T01:42:03;94280.95;;;9.01;100.00
43553;BME280;29153;42.696;23.218;2023-05-24T01:44:39;94277.49;;;9.03;100.00
43553;BME280;29153;42.696;23.218;2023-05-24T01:49:53;94286.77;;;8.90;100.00
43553;BME280;29153;42.696;23.218;2023-05-24T01:52:18;94283.63;;;8.88;100.00
43553;BME280;29153;42.696;23.218;2023-05-24T01:54:50;94280.75;;;8.75;100.00
43553;BME280;29153;42.696;23.218;2023-05-24T01:57:19;94275.47;;;8.75;100.00
43553;BME280;29153;42.696;23.218;2023-05-24T01:59:47;94274.12;;;8.82;100.00
43553;BME280;29153;42.696;23.218;2023-05-24T02:02:15;94279.67;;;8.83;100.00
43553;BME280;29153;42.696;23.218;2023-05-24T02:04:43;94270.97;;;8.85;100.00
43553;BME280;29153;42.696;23.218;2023-05-24T02:07:10;94272.00;;;8.87;100.00
43553;BME280;29153;42.696;23.218;2023-05-24T02:09:38;94269.65;;;8.85;100.00
43553;BME280;29153;42.696;23.218;2023-05-24T02:12:06;94274.66;;;8.84;100.00
43553;BME280;29153;42.696;23.218;2023-05-24T02:14:34;94273.07;;;8.83;100.00
43553;BME280;29153;42.696;23.218;2023-05-24T02:17:03;94273.66;;;8.60;100.00
43553;BME280;29153;42.696;23.218;2023-05-24T02:19:31;94265.47;;;8.56;100.00
43553;BME280;29153;42.696;23.218;2023-05-24T02:22:01;94267.05;;;8.57;100.00
43553;BME280;29153;42.696;23.218;2023-05-24T02:24:29;94260.97;;;8.62;100.00
43553;BME280;29153;42.696;23.218;2023-05-24T02:26:56;94260.70;;;8.66;100.00
43553;BME280;29153;42.696;23.218;2023-05-24T02:29:24;94266.23;;;8.69;100.00
43553;BME280;29153;42.696;23.218;2023-05-24T02:31:51;94266.23;;;8.69;100.00
43553;BME280;29153;42.696;23.218;2023-05-24T02:34:21;94266.25;;;8.67;100.00
43553;BME280;29153;42.696;23.218;2023-05-24T02:36:49;94260.17;;;8.66;100.00
43553;BME280;29153;42.696;23.218;2023-05-24T02:39:19;94260.47;;;8.60;100.00
43553;BME280;29153;42.696;23.218;2023-05-24T02:41:46;94260.98;;;8.52;100.00
43553;BME280;29153;42.696;23.218;2023-05-24T02:44:14;94266.02;;;8.51;100.00
43553;BME280;29153;42.696;23.218;2023-05-24T02:46:41;94266.26;;;8.57;100.00
43553;BME280;29153;42.696;23.218;2023-05-24T02:49:09;94260.70;;;8.56;100.00
43553;BME280;29153;42.696;23.218;2023-05-24T02:51:36;94266.26;;;8.57;100.00
43553;BME280;29153;42.696;23.218;2023-05-24T02:54:04;94261.25;;;8.58;100.00
43553;BME280;29153;42.696;23.218;2023-05-24T02:56:31;94263.11;;;8.55;100.00
43553;BME280;29153;42.696;23.218;2023-05-24T02:58:59;94266.29;;;8.47;100.00
43553;BME280;29153;42.696;23.218;2023-05-24T03:01:28;94274.72;;;8.54;100.00
43553;BME280;29153;42.696;23.218;2023-05-24T03:03:55;94269.69;;;8.57;100.00
43553;BME280;29153;42.696;23.218;2023-05-24T03:06:23;94278.67;;;8.59;100.00
43553;BME280;29153;42.696;23.218;2023-05-24T03:08:50;94285.55;;;8.60;100.00
43553;BME280;29153;42.696;23.218;2023-05-24T03:11:18;94291.89;;;8.51;100.00
43553;BME280;29153;42.696;23.218;2023-05-24T03:13:49;94291.87;;;8.49;100.00
43553;BME280;29153;42.696;23.218;2023-05-24T03:16:16;94296.11;;;8.50;100.00
43553;BME280;29153;42.696;23.218;2023-05-24T03:18:44;94297.16;;;8.54;100.00
43553;BME280;29153;42.696;23.218;2023-05-24T03:21:12;94292.15;;;8.55;100.00
43553;BME280;29153;42.696;23.218;2023-05-24T03:23:40;94301.39;;;8.55;100.00
43553;BME280;29153;42.696;23.218;2023-05-24T03:26:07;94291.08;;;8.53;100.00
43553;BME280;29153;42.696;23.218;2023-05-24T03:28:35;94299.80;;;8.59;100.00
43553;BME280;29153;42.696;23.218;2023-05-24T03:31:03;94299.27;;;8.59;100.00
43553;BME280;29153;42.696;23.218;2023-05-24T03:33:30;94300.30;;;8.56;100.00
43553;BME280;29153;42.696;23.218;2023-05-24T03:35:58;94305.59;;;8.56;100.00
43553;BME280;29153;42.696;23.218;2023-05-24T03:38:26;94308.50;;;8.67;100.00
43553;BME280;29153;42.696;23.218;2023-05-24T03:40:53;94307.16;;;8.75;100.00
43553;BME280;29153;42.696;23.218;2023-05-24T03:43:21;94305.02;;;8.82;100.00
43553;BME280;29153;42.696;23.218;2023-05-24T03:45:48;94302.67;;;8.80;100.00
43553;BME280;29153;42.696;23.218;2023-05-24T03:48:16;94302.66;;;8.85;100.00
43553;BME280;29153;42.696;23.218;2023-05-24T03:50:46;94294.72;;;8.93;100.00
43553;BME280;29153;42.696;23.218;2023-05-24T03:53:14;94301.02;;;8.99;100.00
43553;BME280;29153;42.696;23.218;2023-05-24T03:55:41;94305.25;;;9.00;100.00
43553;BME280;29153;42.696;23.218;2023-05-24T03:58:09;94301.52;;;9.11;100.00
43553;BME280;29153;42.696;23.218;2023-05-24T04:00:37;94299.87;;;9.31;100.00
43553;BME280;29153;42.696;23.218;2023-05-24T04:03:04;94294.30;;;9.35;100.00
43553;BME280;29153;42.696;23.218;2023-05-24T04:05:32;94295.83;;;9.46;100.00
43553;BME280;29153;42.696;23.218;2023-05-24T04:08:00;94275.52;;;9.39;100.00
43553;BME280;29153;42.696;23.218;2023-05-24T04:10:28;94303.70;;;9.61;100.00
43553;BME280;29153;42.696;23.218;2023-05-24T04:12:55;94300.44;;;9.79;100.00
43553;BME280;29153;42.696;23.218;2023-05-24T04:15:24;94297.19;;;9.90;100.00
43553;BME280;29153;42.696;23.218;2023-05-24T04:17:51;94299.22;;;10.03;100.00
43553;BME280;29153;42.696;23.218;2023-05-24T04:20:20;94295.42;;;10.19;100.00
43553;BME280;29153;42.696;23.218;2023-05-24T04:22:53;94296.72;;;10.27;100.00
43553;BME280;29153;42.696;23.218;2023-05-24T04:25:22;94290.76;;;10.40;100.00
43553;BME280;29153;42.696;23.218;2023-05-24T04:27:49;94294.36;;;10.54;100.00
43553;BME280;29153;42.696;23.218;2023-05-24T04:30:16;94297.56;;;10.80;100.00
43553;BME280;29153;42.696;23.218;2023-05-24T04:32:44;94298.05;;;11.11;100.00
43553;BME280;29153;42.696;23.218;2023-05-24T04:35:13;94299.44;;;11.29;100.00
43553;BME280;29153;42.696;23.218;2023-05-24T04:37:40;94305.92;;;11.42;100.00
43553;BME280;29153;42.696;23.218;2023-05-24T04:40:08;94302.70;;;11.45;100.00
43553;BME280;29153;42.696;23.218;2023-05-24T04:42:36;94308.90;;;11.59;100.00
43553;BME280;29153;42.696;23.218;2023-05-24T04:45:04;94316.45;;;11.68;100.00
43553;BME280;29153;42.696;23.218;2023-05-24T04:47:32;94313.00;;;11.92;100.00
43553;BME280;29153;42.696;23.218;2023-05-24T04:49:59;94314.87;;;12.10;100.00
43553;BME280;29153;42.696;23.218;2023-05-24T04:52:27;94322.27;;;12.13;100.00
43553;BME280;29153;42.696;23.218;2023-05-24T04:54:55;94323.80;;;12.16;100.00
43553;BME280;29153;42.696;23.218;2023-05-24T04:57:23;94322.87;;;12.26;100.00
43553;BME280;29153;42.696;23.218;2023-05-24T04:59:50;94324.33;;;12.35;100.00
43553;BME280;29153;42.696;23.218;2023-05-24T05:02:18;94328.94;;;12.45;100.00
43553;BME280;29153;42.696;23.218;2023-05-24T05:04:47;94332.85;;;12.50;100.00
43553;BME280;29153;42.696;23.218;2023-05-24T05:07:14;94336.23;;;12.72;100.00
43553;BME280;29153;42.696;23.218;2023-05-24T05:09:41;94336.69;;;12.76;100.00
43553;BME280;29153;42.696;23.218;2023-05-24T05:12:09;94335.53;;;12.83;100.00
43553;BME280;29153;42.696;23.218;2023-05-24T05:14:36;94339.98;;;12.87;100.00
43553;BME280;29153;42.696;23.218;2023-05-24T05:17:04;94342.42;;;13.00;100.00
43553;BME280;29153;42.696;23.218;2023-05-24T05:19:32;94341.09;;;13.00;98.89
43553;BME280;29153;42.696;23.218;2023-05-24T05:21:59;94342.14;;;13.17;99.06
43553;BME280;29153;42.696;23.218;2023-05-24T05:24:27;94344.20;;;13.20;96.54
43553;BME280;29153;42.696;23.218;2023-05-24T05:26:54;94348.73;;;13.20;97.10
43553;BME280;29153;42.696;23.218;2023-05-24T05:29:22;94341.56;;;13.34;96.93
43553;BME280;29153;42.696;23.218;2023-05-24T05:31:49;94347.88;;;13.38;97.40
43553;BME280;29153;42.696;23.218;2023-05-24T05:34:17;94351.52;;;13.42;96.42
43553;BME280;29153;42.696;23.218;2023-05-24T05:36:46;94349.89;;;13.57;97.42
43553;BME280;29153;42.696;23.218;2023-05-24T05:39:13;94340.86;;;13.69;95.83
43553;BME280;29153;42.696;23.218;2023-05-24T05:41:41;94337.13;;;13.71;93.60
43553;BME280;29153;42.696;23.218;2023-05-24T05:44:12;94342.50;;;13.82;93.60
43553;BME280;29153;42.696;23.218;2023-05-24T05:46:39;94342.27;;;13.92;92.96
43553;BME280;29153;42.696;23.218;2023-05-24T05:49:09;94349.19;;;13.93;94.00
43553;BME280;29153;42.696;23.218;2023-05-24T05:51:36;94354.41;;;14.23;93.89
43553;BME280;29153;42.696;23.218;2023-05-24T05:54:04;94351.45;;;14.24;94.14
43553;BME280;29153;42.696;23.218;2023-05-24T05:56:34;94364.64;;;14.29;93.27
43553;BME280;29153;42.696;23.218;2023-05-24T05:59:03;94350.67;;;14.35;93.64
43553;BME280;29153;42.696;23.218;2023-05-24T06:01:30;94352.72;;;14.40;91.53
43553;BME280;29153;42.696;23.218;2023-05-24T06:03:58;94353.22;;;14.53;92.94
43553;BME280;29153;42.696;23.218;2023-05-24T06:06:25;94359.88;;;14.65;93.42
43553;BME280;29153;42.696;23.218;2023-05-24T06:08:53;94361.23;;;14.76;91.53
43553;BME280;29153;42.696;23.218;2023-05-24T06:11:20;94369.72;;;14.89;90.46
43553;BME280;29153;42.696;23.218;2023-05-24T06:13:48;94361.40;;;14.90;91.14
43553;BME280;29153;42.696;23.218;2023-05-24T06:16:16;94361.40;;;14.90;91.14
43553;BME280;29153;42.696;23.218;2023-05-24T06:18:44;94371.70;;;14.94;87.60
43553;BME280;29153;42.696;23.218;2023-05-24T06:21:16;94367.52;;;15.13;87.21
43553;BME280;29153;42.696;23.218;2023-05-24T06:23:43;94363.23;;;15.23;87.47
43553;BME280;29153;42.696;23.218;2023-05-24T06:26:11;94370.58;;;15.29;86.60
43553;BME280;29153;42.696;23.218;2023-05-24T06:28:38;94361.98;;;15.40;86.78
43553;BME280;29153;42.696;23.218;2023-05-24T06:31:06;94363.15;;;15.48;86.66
43553;BME280;29153;42.696;23.218;2023-05-24T06:33:33;94370.73;;;15.55;85.51
43553;BME280;29153;42.696;23.218;2023-05-24T06:36:01;94362.51;;;15.62;82.71
43553;BME280;29153;42.696;23.218;2023-05-24T06:38:29;94371.22;;;15.76;82.50
43553;BME280;29153;42.696;23.218;2023-05-24T06:40:58;94362.84;;;15.89;81.60
43553;BME280;29153;42.696;23.218;2023-05-24T06:43:25;94362.84;;;15.89;81.60
43553;BME280;29153;42.696;23.218;2023-05-24T06:45:53;94367.89;;;15.90;80.21
43553;BME280;29153;42.696;23.218;2023-05-24T06:48:21;94373.50;;;16.00;80.86
43553;BME280;29153;42.696;23.218;2023-05-24T06:50:49;94372.48;;;16.07;81.86
43553;BME280;29153;42.696;23.218;2023-05-24T06:53:16;94368.25;;;16.15;81.23
43553;BME280;29153;42.696;23.218;2023-05-24T06:55:44;94370.64;;;16.25;81.49
43553;BME280;29153;42.696;23.218;2023-05-24T06:58:11;94379.88;;;16.38;79.84
43553;BME280;29153;42.696;23.218;2023-05-24T07:00:41;94373.34;;;16.51;78.21
43553;BME280;29153;42.696;23.218;2023-05-24T07:03:11;94372.16;;;16.54;79.10
43553;BME280;29153;42.696;23.218;2023-05-24T07:05:39;94376.67;;;16.65;76.90
43553;BME280;29153;42.696;23.218;2023-05-24T07:08:06;94367.95;;;16.70;78.95
43553;BME280;29153;42.696;23.218;2023-05-24T07:10:34;94373.54;;;16.71;77.65
43553;BME280;29153;42.696;23.218;2023-05-24T07:13:02;94367.00;;;16.75;78.45
43553;BME280;29153;42.696;23.218;2023-05-24T07:15:29;94363.28;;;16.91;76.57
43553;BME280;29153;42.696;23.218;2023-05-24T07:17:57;94363.28;;;16.91;76.57
43553;BME280;29153;42.696;23.218;2023-05-24T07:20:24;94375.30;;;17.16;76.68
43553;BME280;29153;42.696;23.218;2023-05-24T07:22:51;94372.73;;;17.37;78.34
43553;BME280;29153;42.696;23.218;2023-05-24T07:25:19;94379.50;;;17.43;74.86
43553;BME280;29153;42.696;23.218;2023-05-24T07:27:48;94378.17;;;17.90;72.88
43553;BME280;29153;42.696;23.218;2023-05-24T07:30:16;94378.17;;;17.90;72.88
43553;BME280;29153;42.696;23.218;2023-05-24T07:32:44;94379.89;;;18.24;71.51
43553;BME280;29153;42.696;23.218;2023-05-24T07:35:12;94380.75;;;18.51;72.71
43553;BME280;29153;42.696;23.218;2023-05-24T07:37:40;94379.70;;;18.99;72.59
43553;BME280;29153;42.696;23.218;2023-05-24T07:40:08;94379.70;;;18.99;72.59
43553;BME280;29153;42.696;23.218;2023-05-24T07:42:38;94378.88;;;19.26;71.92
43553;BME280;29153;42.696;23.218;2023-05-24T07:45:09;94388.75;;;19.61;69.77
43553;BME280;29153;42.696;23.218;2023-05-24T07:47:37;94389.81;;;19.92;68.52
43553;BME280;29153;42.696;23.218;2023-05-24T07:50:05;94350.03;;;20.22;68.69
43553;BME280;29153;42.696;23.218;2023-05-24T07:52:32;94390.89;;;20.82;66.51
43553;BME280;29153;42.696;23.218;2023-05-24T07:54:59;94385.61;;;21.26;62.62
43553;BME280;29153;42.696;23.218;2023-05-24T07:57:27;94382.89;;;21.69;64.85
43553;BME280;29153;42.696;23.218;2023-05-24T07:59:54;94388.17;;;21.88;64.20
43553;BME280;29153;42.696;23.218;2023-05-24T08:02:22;94380.12;;;22.19;62.12
43553;BME280;29153;42.696;23.218;2023-05-24T08:04:49;94383.31;;;22.40;54.81
43553;BME280;29153;42.696;23.218;2023-05-24T08:07:16;94384.98;;;22.64;55.89
43553;BME280;29153;42.696;23.218;2023-05-24T08:09:44;94382.57;;;22.94;50.56
43553;BME280;29153;42.696;23.218;2023-05-24T08:12:12;94374.89;;;23.15;49.92
43553;BME280;29153;42.696;23.218;2023-05-24T08:14:40;94368.51;;;23.52;51.15
43553;BME280;29153;42.696;23.218;2023-05-24T08:17:07;94366.20;;;23.96;55.55
43553;BME280;29153;42.696;23.218;2023-05-24T08:19:35;94370.77;;;24.05;47.95
43553;BME280;29153;42.696;23.218;2023-05-24T08:22:02;94364.44;;;24.07;45.83
43553;BME280;29153;42.696;23.218;2023-05-24T08:24:30;94362.52;;;24.08;49.61
43553;BME280;29153;42.696;23.218;2023-05-24T08:26:58;94365.85;;;24.33;44.42
43553;BME280;29153;42.696;23.218;2023-05-24T08:29:25;94288.98;;;23.79;43.61
43553;BME280;29153;42.696;23.218;2023-05-24T08:31:53;94359.48;;;24.35;45.82
43553;BME280;29153;42.696;23.218;2023-05-24T08:34:21;94360.06;;;24.48;41.34
43553;BME280;29153;42.696;23.218;2023-05-24T08:36:48;94356.08;;;24.94;49.43
43553;BME280;29153;42.696;23.218;2023-05-24T08:39:16;94356.94;;;25.15;41.88
43553;BME280;29153;42.696;23.218;2023-05-24T08:41:43;94365.97;;;25.26;38.04
43553;BME280;29153;42.696;23.218;2023-05-24T08:44:13;94361.75;;;24.99;38.53
43553;BME280;29153;42.696;23.218;2023-05-24T08:46:41;94355.05;;;25.03;44.15
43553;BME280;29153;42.696;23.218;2023-05-24T08:49:08;94356.10;;;25.45;38.82
43553;BME280;29153;42.696;23.218;2023-05-24T08:51:38;94360.00;;;25.64;40.21
43553;BME280;29153;42.696;23.218;2023-05-24T08:54:07;94353.91;;;25.54;41.51
43553;BME280;29153;42.696;23.218;2023-05-24T08:56:36;94362.46;;;25.43;35.91
43553;BME280;29153;42.696;23.218;2023-05-24T08:59:06;94350.84;;;25.59;34.90
43553;BME280;29153;42.696;23.218;2023-05-24T09:01:36;94350.89;;;25.82;38.78
43553;BME280;29153;42.696;23.218;2023-05-24T09:04:04;94351.88;;;25.84;40.22
43553;BME280;29153;42.696;23.218;2023-05-24T09:06:32;94348.73;;;26.02;41.87
43553;BME280;29153;42.696;23.218;2023-05-24T09:09:01;94345.37;;;26.19;38.89
43553;BME280;29153;42.696;23.218;2023-05-24T09:11:31;94342.38;;;26.08;43.25
43553;BME280;29153;42.696;23.218;2023-05-24T09:14:00;94343.00;;;26.14;37.71
43553;BME280;29153;42.696;23.218;2023-05-24T09:16:28;94345.70;;;25.87;41.09
43553;BME280;29153;42.696;23.218;2023-05-24T09:18:55;94344.89;;;26.07;41.26
43553;BME280;29153;42.696;23.218;2023-05-24T09:21:23;94346.22;;;25.79;35.56
43553;BME280;29153;42.696;23.218;2023-05-24T09:23:52;94345.96;;;25.95;39.78
43553;BME280;29153;42.696;23.218;2023-05-24T09:26:20;94348.47;;;25.94;37.85
43553;BME280;29153;42.696;23.218;2023-05-24T09:28:53;94343.11;;;25.81;35.77
43553;BME280;29153;42.696;23.218;2023-05-24T09:31:37;94342.67;;;25.96;40.57
43553;BME280;29153;42.696;23.218;2023-05-24T09:34:00;94336.59;;;26.09;36.24
43553;BME280;29153;42.696;23.218;2023-05-24T09:36:27;94333.39;;;26.20;40.93
43553;BME280;29153;42.696;23.218;2023-05-24T09:39:06;94338.13;;;26.31;40.79
43553;BME280;29153;42.696;23.218;2023-05-24T09:41:39;94335.74;;;26.22;37.68
43553;BME280;29153;42.696;23.218;2023-05-24T09:44:07;94339.64;;;26.04;36.23
43553;BME280;29153;42.696;23.218;2023-05-24T09:46:37;94341.12;;;25.98;37.10
43553;BME280;29153;42.696;23.218;2023-05-24T09:49:05;94339.16;;;26.19;37.53
43553;BME280;29153;42.696;23.218;2023-05-24T09:51:37;94336.38;;;26.08;34.42
43553;BME280;29153;42.696;23.218;2023-05-24T09:54:05;94338.42;;;25.98;34.38
43553;BME280;29153;42.696;23.218;2023-05-24T09:56:36;94335.98;;;25.86;35.18
43553;BME280;29153;42.696;23.218;2023-05-24T09:59:07;94335.12;;;25.75;38.26
43553;BME280;29153;42.696;23.218;2023-05-24T10:01:35;94331.98;;;25.73;35.78
43553;BME280;29153;42.696;23.218;2023-05-24T10:04:02;94331.11;;;25.82;34.81
43553;BME280;29153;42.696;23.218;2023-05-24T10:06:34;94326.83;;;25.81;34.81
43553;BME280;29153;42.696;23.218;2023-05-24T10:09:04;94323.94;;;25.80;37.57
43553;BME280;29153;42.696;23.218;2023-05-24T10:11:35;94317.16;;;26.07;34.97
43553;BME280;29153;42.696;23.218;2023-05-24T10:14:04;94320.04;;;26.01;35.84
43553;BME280;29153;42.696;23.218;2023-05-24T10:16:38;94316.72;;;26.02;34.59
43553;BME280;29153;42.696;23.218;2023-05-24T10:19:05;94315.11;;;25.94;34.08
43553;BME280;29153;42.696;23.218;2023-05-24T10:21:34;94309.94;;;26.02;35.46
43553;BME280;29153;42.696;23.218;2023-05-24T10:24:05;94307.83;;;26.01;32.71
43553;BME280;29153;42.696;23.218;2023-05-24T10:26:35;94312.23;;;25.96;32.59
43553;BME280;29153;42.696;23.218;2023-05-24T10:44:37;94291.06;;;26.19;34.16
43553;BME280;29153;42.696;23.218;2023-05-24T10:47:07;94296.89;;;26.18;32.61
43553;BME280;29153;42.696;23.218;2023-05-24T10:49:38;94292.59;;;26.13;38.38
43553;BME280;29153;42.696;23.218;2023-05-24T10:52:07;94289.59;;;26.25;41.00
43553;BME280;29153;42.696;23.218;2023-05-24T10:54:35;94289.66;;;26.12;34.70
43553;BME280;29153;42.696;23.218;2023-05-24T10:57:05;94290.02;;;26.07;31.65
43553;BME280;29153;42.696;23.218;2023-05-24T10:59:37;94280.30;;;26.06;34.53
43553;BME280;29153;42.696;23.218;2023-05-24T11:02:11;94287.00;;;25.92;32.08
43553;BME280;29153;42.696;23.218;2023-05-24T11:04:47;94282.28;;;25.62;33.40
43553;BME280;29153;42.696;23.218;2023-05-24T11:07:15;94279.19;;;25.47;32.73
43553;BME280;29153;42.696;23.218;2023-05-24T11:09:47;94277.80;;;25.60;33.93
43553;BME280;29153;42.696;23.218;2023-05-24T11:12:17;94262.01;;;25.72;37.96
43553;BME280;29153;42.696;23.218;2023-05-24T11:14:49;94269.55;;;25.69;39.07
43553;BME280;29153;42.696;23.218;2023-05-24T11:17:21;94268.50;;;25.84;41.86
43553;BME280;29153;42.696;23.218;2023-05-24T11:19:51;94271.13;;;25.98;36.53
43553;BME280;29153;42.696;23.218;2023-05-24T11:22:21;94267.96;;;25.65;31.07
43553;BME280;29153;42.696;23.218;2023-05-24T11:24:50;94256.43;;;25.75;36.51
43553;BME280;29153;42.696;23.218;2023-05-24T11:27:18;94265.44;;;25.90;34.14
43553;BME280;29153;42.696;23.218;2023-05-24T11:29:46;94262.02;;;25.96;33.59
43553;BME280;29153;42.696;23.218;2023-05-24T11:32:19;94269.75;;;25.94;32.08
43553;BME280;29153;42.696;23.218;2023-05-24T11:34:47;94265.38;;;25.79;32.17
43553;BME280;29153;42.696;23.218;2023-05-24T11:52:48;94242.93;;;26.13;31.25
43553;BME280;29153;42.696;23.218;2023-05-24T11:55:22;94232.99;;;26.07;36.79
43553;BME280;29153;42.696;23.218;2023-05-24T11:57:49;94231.02;;;26.32;39.70
43553;BME280;29153;42.696;23.218;2023-05-24T12:00:24;94239.64;;;26.13;33.48
43553;BME280;29153;42.696;23.218;2023-05-24T12:02:55;94239.72;;;26.24;32.93
43553;BME280;29153;42.696;23.218;2023-05-24T12:05:21;94236.84;;;26.26;35.19
43553;BME280;29153;42.696;23.218;2023-05-24T12:08:11;94233.08;;;26.18;34.18
43553;BME280;29153;42.696;23.218;2023-05-24T12:10:19;94237.97;;;25.98;33.15
43553;BME280;29153;42.696;23.218;2023-05-24T12:12:47;94234.52;;;26.01;34.55
43553;BME280;29153;42.696;23.218;2023-05-24T12:15:14;94237.15;;;25.91;33.51
43553;BME280;29153;42.696;23.218;2023-05-24T12:17:46;94226.27;;;25.87;33.65
43553;BME280;29153;42.696;23.218;2023-05-24T12:20:14;94222.98;;;25.64;33.52
43553;BME280;29153;42.696;23.218;2023-05-24T12:22:53;94227.94;;;25.75;33.10
43553;BME280;29153;42.696;23.218;2023-05-24T12:25:22;94220.53;;;25.52;33.30
43553;BME280;29153;42.696;23.218;2023-05-24T12:27:55;94217.09;;;25.78;36.62
43553;BME280;29153;42.696;23.218;2023-05-24T12:30:24;94209.30;;;25.50;33.42
43553;BME280;29153;42.696;23.218;2023-05-24T12:32:52;94208.09;;;25.67;38.85
43553;BME280;29153;42.696;23.218;2023-05-24T12:35:20;94210.39;;;25.62;34.02
43553;BME280;29153;42.696;23.218;2023-05-24T12:37:48;94155.22;;;25.51;34.82
43553;BME280;29153;42.696;23.218;2023-05-24T12:40:17;94203.30;;;26.01;38.37
43553;BME280;29153;42.696;23.218;2023-05-24T12:42:53;94204.00;;;25.91;33.56
43553;BME280;29153;42.696;23.218;2023-05-24T12:45:26;94200.59;;;25.74;38.44
43553;BME280;29153;42.696;23.218;2023-05-24T12:47:58;94194.49;;;25.64;35.67
43553;BME280;29153;42.696;23.218;2023-05-24T12:50:28;94190.08;;;25.69;35.13
43553;BME280;29153;42.696;23.218;2023-05-24T12:52:56;94192.05;;;25.52;33.03
43553;BME280;29153;42.696;23.218;2023-05-24T12:55:23;94192.34;;;25.60;36.57
43553;BME280;29153;42.696;23.218;2023-05-24T12:57:54;94182.70;;;25.66;37.11
43553;BME280;29153;42.696;23.218;2023-05-24T13:00:24;94190.06;;;25.65;33.68
43553;BME280;29153;42.696;23.218;2023-05-24T13:02:55;94190.31;;;25.50;32.03
43553;BME280;29153;42.696;23.218;2023-05-24T13:05:26;94182.09;;;25.43;35.14
43553;BME280;29153;42.696;23.218;2023-05-24T13:07:55;94190.63;;;25.41;35.82
43553;BME280;29153;42.696;23.218;2023-05-24T13:10:24;94181.52;;;25.19;33.06
43553;BME280;29153;42.696;23.218;2023-05-24T13:12:51;94183.90;;;25.24;35.12
43553;BME280;29153;42.696;23.218;2023-05-24T14:35:16;94186.16;;;18.86;90.45
43553;BME280;29153;42.696;23.218;2023-05-24T14:37:43;94186.16;;;18.86;90.45
43553;BME280;29153;42.696;23.218;2023-05-24T14:40:11;94195.80;;;19.05;87.18
43553;BME280;29153;42.696;23.218;2023-05-24T14:42:40;94194.91;;;19.14;91.04
43553;BME280;29153;42.696;23.218;2023-05-24T14:45:08;94193.67;;;19.17;95.28
43553;BME280;29153;42.696;23.218;2023-05-24T14:47:35;94192.23;;;19.20;98.74
43553;BME280;29153;42.696;23.218;2023-05-24T14:50:03;94185.84;;;19.18;96.98
43553;BME280;29153;42.696;23.218;2023-05-24T14:52:30;94185.97;;;19.28;97.89
43553;BME280;29153;42.696;23.218;2023-05-24T14:54:58;94185.97;;;19.28;97.89